Time;durP1;ratioP1;P1;durP2;ratioP2;P2;SDS_P1;SDS_P2;PMS_P1;PMS_P2;Temp;Humidity;BMP_temperature;BMP_pressure;BME280_temperature;BME280_humidity;BME280_pressure;Samples;Min_cycle;Max_cycle;Signal;HPM_P1;HPM_P2
2023/01/02 00:00:58;;;;;;;8.75;3.00;;;8.60;99.90;;;;;;5053294;28;20549;-56
2023/01/02 00:03:24;;;;;;;11.00;3.25;;;9.00;99.90;;;;;;5054103;28;20500;-55
2023/01/02 00:05:49;;;;;;;11.52;3.13;;;8.80;99.90;;;;;;5052913;28;20501;-55
2023/01/02 00:08:16;;;;;;;11.10;3.25;;;8.90;99.90;;;;;;5052714;28;20157;-54
2023/01/02 00:10:43;;;;;;;9.27;3.28;;;8.70;99.90;;;;;;5053299;28;20071;-56
2023/01/02 00:13:09;;;;;;;10.00;3.75;;;8.80;99.90;;;;;;5053859;28;20441;-55
2023/01/02 00:15:34;;;;;;;15.32;4.40;;;8.80;99.90;;;;;;5053170;28;20055;-55
2023/01/02 00:18:00;;;;;;;12.18;4.22;;;8.70;99.90;;;;;;5053140;28;20044;-55
2023/01/02 00:20:26;;;;;;;10.48;3.90;;;8.90;99.90;;;;;;5051687;28;20036;-55
2023/01/02 00:22:51;;;;;;;14.93;5.07;;;8.80;99.90;;;;;;5052564;28;20044;-55
2023/01/02 00:25:17;;;;;;;8.60;3.65;;;8.80;99.90;;;;;;5052393;28;20036;-55
2023/01/02 00:27:43;;;;;;;11.35;4.97;;;9.10;99.90;;;;;;5054659;28;20948;-56
2023/01/02 00:30:09;;;;;;;11.02;5.10;;;8.80;99.90;;;;;;5054365;28;20118;-56
2023/01/02 00:32:35;;;;;;;10.65;4.97;;;8.80;99.90;;;;;;5053686;28;20626;-55
2023/01/02 00:35:01;;;;;;;12.52;6.53;;;9.10;99.90;;;;;;5054808;28;20045;-56
2023/01/02 00:37:26;;;;;;;12.70;6.18;;;9.10;99.90;;;;;;5054057;28;20044;-56
2023/01/02 00:39:52;;;;;;;10.88;6.00;;;8.90;99.90;;;;;;5052384;28;20044;-55
2023/01/02 00:42:18;;;;;;;10.20;6.07;;;10.00;99.90;;;;;;5053525;28;20094;-56
2023/01/02 00:44:43;;;;;;;13.65;6.72;;;9.00;99.90;;;;;;5055458;28;20626;-55
2023/01/02 00:47:09;;;;;;;14.15;7.40;;;9.20;99.90;;;;;;5053915;28;20036;-56
2023/01/02 00:49:35;;;;;;;13.88;8.18;;;9.10;99.90;;;;;;5054031;28;20033;-56
2023/01/02 00:52:00;;;;;;;16.95;8.55;;;9.10;99.90;;;;;;5054689;28;20048;-56
2023/01/02 00:54:26;;;;;;;17.42;9.48;;;9.10;99.90;;;;;;5053892;28;20048;-56
2023/01/02 00:56:52;;;;;;;15.10;8.95;;;9.20;99.90;;;;;;5054358;28;20454;-55
2023/01/02 00:59:17;;;;;;;14.45;9.25;;;9.10;99.90;;;;;;5052600;28;20100;-56
2023/01/02 01:01:43;;;;;;;18.10;8.95;;;9.20;99.90;;;;;;5052812;28;20056;-56
2023/01/02 01:04:09;;;;;;;16.00;9.18;;;9.40;99.90;;;;;;5053333;28;20116;-56
2023/01/02 01:06:35;;;;;;;17.85;9.85;;;9.50;99.90;;;;;;5052222;28;20041;-56
2023/01/02 01:09:01;;;;;;;16.98;9.52;;;9.40;99.90;;;;;;5052595;28;20059;-56
2023/01/02 01:11:27;;;;;;;14.30;8.55;;;9.30;99.90;;;;;;5052980;28;20051;-56
2023/01/02 01:13:53;;;;;;;15.77;9.18;;;9.50;99.90;;;;;;5052976;28;20051;-55
2023/01/02 01:16:19;;;;;;;14.18;8.57;;;9.50;99.90;;;;;;5052148;28;20040;-56
2023/01/02 01:18:46;;;;;;;13.52;8.30;;;9.60;99.90;;;;;;5052521;28;20462;-56
2023/01/02 01:21:16;;;;;;;11.98;8.00;;;9.50;99.90;;;;;;5052921;28;20044;-55
2023/01/02 01:23:43;;;;;;;16.77;9.55;;;9.60;99.90;;;;;;5052974;28;21195;-56
2023/01/02 01:26:12;;;;;;;13.90;8.48;;;9.80;99.90;;;;;;5053181;28;20052;-56
2023/01/02 01:28:38;;;;;;;17.90;9.55;;;9.70;99.90;;;;;;5052970;28;20331;-56
2023/01/02 01:31:12;;;;;;;13.02;8.40;;;9.70;99.90;;;;;;5051873;28;20059;-56
2023/01/02 01:33:40;;;;;;;13.35;8.55;;;9.70;99.90;;;;;;5052617;28;20483;-56
2023/01/02 01:36:14;;;;;;;13.93;8.68;;;9.70;99.90;;;;;;5052552;28;20791;-56
2023/01/02 01:38:42;;;;;;;15.10;9.80;;;9.80;99.90;;;;;;5052362;28;20139;-56
2023/01/02 01:41:10;;;;;;;18.00;10.27;;;9.90;99.90;;;;;;5053096;28;20523;-56
2023/01/02 01:43:45;;;;;;;12.80;8.75;;;9.80;99.90;;;;;;5051760;28;20849;-56
2023/01/02 01:46:30;;;;;;;14.18;9.82;;;9.90;99.90;;;;;;5052139;28;20589;-56
2023/01/02 01:49:12;;;;;;;16.55;10.27;;;9.70;99.90;;;;;;5052094;28;20060;-56
2023/01/02 01:52:03;;;;;;;17.13;11.13;;;9.70;99.90;;;;;;5055401;28;20292;-55
2023/01/02 01:54:35;;;;;;;14.93;9.45;;;10.00;99.90;;;;;;5056116;28;20044;-56
2023/01/02 01:57:16;;;;;;;16.08;11.15;;;9.70;99.90;;;;;;5056962;28;20154;-56
2023/01/02 01:59:42;;;;;;;18.08;11.57;;;10.00;99.90;;;;;;5056452;28;22121;-56
2023/01/02 02:02:08;;;;;;;19.77;11.95;;;9.60;99.90;;;;;;5057923;28;20067;-54
2023/01/02 02:04:34;;;;;;;18.90;11.80;;;9.80;99.90;;;;;;5056911;28;20790;-56
2023/01/02 02:07:00;;;;;;;19.42;12.68;;;9.90;99.90;;;;;;5057062;28;20102;-56
2023/01/02 02:09:46;;;;;;;18.45;12.38;;;9.90;99.90;;;;;;5056552;28;20717;-56
2023/01/02 02:12:13;;;;;;;22.40;12.82;;;10.00;99.90;;;;;;5057326;28;20931;-56
2023/01/02 02:14:38;;;;;;;20.98;12.73;;;10.10;99.90;;;;;;5056454;28;20095;-55
2023/01/02 02:17:13;;;;;;;18.17;11.65;;;9.80;99.90;;;;;;5056958;28;20124;-55
2023/01/02 02:20:07;;;;;;;19.67;13.00;;;9.90;99.90;;;;;;5057024;28;20107;-55
2023/01/02 02:23:24;;;;;;;20.35;13.32;;;10.00;99.90;;;;;;5056085;28;20028;-55
2023/01/02 02:26:22;;;;;;;19.88;13.85;;;10.10;99.90;;;;;;5023017;28;20109;-56
2023/01/02 02:29:40;;;;;;;20.52;13.98;;;9.90;99.90;;;;;;5055342;28;20045;-56
2023/01/02 02:32:26;;;;;;;25.40;14.18;;;10.00;99.90;;;;;;5047211;28;20052;-54
2023/01/02 02:34:57;;;;;;;22.65;15.75;;;10.20;99.90;;;;;;5055591;28;20998;-56
2023/01/02 02:37:51;;;;;;;20.45;14.00;;;10.20;99.90;;;;;;5054889;28;20059;-56
2023/01/02 02:40:49;;;;;;;19.67;13.88;;;10.20;99.90;;;;;;5055134;28;20033;-57
2023/01/02 02:43:27;;;;;;;20.95;13.43;;;10.30;99.90;;;;;;5035342;28;20303;-55
2023/01/02 02:46:18;;;;;;;18.08;12.73;;;10.40;99.90;;;;;;5054274;28;20032;-56
2023/01/02 02:48:43;;;;;;;23.60;14.35;;;10.40;99.90;;;;;;5055378;28;20402;-56
2023/01/02 02:51:41;;;;;;;21.33;14.65;;;10.20;99.90;;;;;;5054707;28;22305;-56
2023/01/02 02:54:34;;;;;;;21.95;14.43;;;10.20;99.90;;;;;;5054290;28;20107;-55
2023/01/02 02:57:02;;;;;;;18.77;14.13;;;10.30;99.90;;;;;;5035520;28;20075;-56
2023/01/02 02:59:29;;;;;;;19.30;13.40;;;10.40;99.90;;;;;;5054379;28;20051;-55
2023/01/02 03:01:54;;;;;;;19.25;13.07;;;10.30;99.90;;;;;;5053467;28;20036;-56
2023/01/02 03:04:21;;;;;;;23.88;14.00;;;10.30;99.90;;;;;;5054683;28;20125;-55
2023/01/02 03:07:10;;;;;;;24.13;14.82;;;10.30;99.90;;;;;;5055688;28;20035;-55
2023/01/02 03:09:57;;;;;;;18.60;12.57;;;10.50;99.90;;;;;;5055704;28;20060;-56
2023/01/02 03:13:08;;;;;;;17.48;12.57;;;10.20;99.90;;;;;;5055437;28;20117;-56
2023/01/02 03:16:03;;;;;;;19.23;13.55;;;10.30;99.90;;;;;;5039223;28;20059;-56
2023/01/02 03:18:35;;;;;;;21.08;13.80;;;10.40;99.90;;;;;;5048355;28;20216;-56
2023/01/02 03:21:14;;;;;;;21.27;14.02;;;10.30;99.90;;;;;;5054812;28;20047;-56
2023/01/02 03:23:45;;;;;;;22.52;14.05;;;10.40;99.90;;;;;;5087310;28;20462;-56
2023/01/02 03:26:17;;;;;;;18.67;12.43;;;10.50;99.90;;;;;;5055563;28;20109;-56
2023/01/02 03:28:49;;;;;;;18.67;13.27;;;10.60;99.90;;;;;;5056443;28;20400;-57
2023/01/02 03:31:18;;;;;;;18.10;13.82;;;10.50;99.90;;;;;;5055939;28;20052;-56
2023/01/02 03:33:51;;;;;;;19.80;13.70;;;10.40;99.90;;;;;;5055624;28;20100;-56
2023/01/02 03:36:25;;;;;;;19.88;14.65;;;10.30;99.90;;;;;;5054400;28;20041;-56
2023/01/02 03:38:57;;;;;;;23.02;14.23;;;10.60;99.90;;;;;;5054613;28;20670;-56
2023/01/02 03:41:27;;;;;;;18.90;14.43;;;10.40;99.90;;;;;;5053651;28;20606;-56
2023/01/02 03:43:55;;;;;;;19.00;13.98;;;10.60;99.90;;;;;;5053438;28;20110;-56
2023/01/02 03:46:24;;;;;;;22.92;15.02;;;10.50;99.90;;;;;;5053647;28;20432;-56
2023/01/02 03:49:13;;;;;;;25.63;17.05;;;10.70;99.90;;;;;;5054904;28;20043;-57
2023/01/02 03:51:40;;;;;;;24.90;16.45;;;10.50;99.90;;;;;;5054283;28;20269;-56
2023/01/02 03:54:06;;;;;;;23.70;15.35;;;9.40;99.90;;;;;;5053724;28;20137;-56
2023/01/02 03:56:41;;;;;;;26.38;16.02;;;10.50;99.90;;;;;;5053993;28;20071;-56
2023/01/02 03:59:29;;;;;;;29.02;16.80;;;10.70;99.90;;;;;;5053599;28;20036;-57
2023/01/02 04:02:12;;;;;;;25.15;15.50;;;10.60;99.90;;;;;;5053316;28;20127;-56
2023/01/02 04:04:48;;;;;;;28.15;15.13;;;10.60;99.90;;;;;;5053212;28;20131;-56
2023/01/02 04:07:23;;;;;;;29.45;17.58;;;10.70;99.90;;;;;;5053493;28;20083;-56
2023/01/02 04:09:50;;;;;;;26.15;15.85;;;10.60;99.90;;;;;;5054242;28;20126;-56
2023/01/02 04:12:19;;;;;;;25.63;16.23;;;10.50;99.90;;;;;;5053457;28;20040;-56
2023/01/02 04:14:54;;;;;;;29.42;16.60;;;10.50;99.90;;;;;;5051647;28;20113;-56
2023/01/02 04:17:22;;;;;;;26.80;15.80;;;10.70;99.90;;;;;;5053148;28;20044;-56
2023/01/02 04:19:54;;;;;;;29.13;17.30;;;10.60;99.90;;;;;;5052256;28;20041;-56
2023/01/02 04:22:27;;;;;;;28.65;17.48;;;10.60;99.90;;;;;;5052864;28;20048;-57
2023/01/02 04:25:12;;;;;;;24.63;16.83;;;10.70;99.90;;;;;;5053710;28;20048;-56
2023/01/02 04:27:54;;;;;;;30.08;17.92;;;10.50;99.90;;;;;;5053242;28;20041;-56
2023/01/02 04:30:20;;;;;;;29.75;18.90;;;10.60;99.90;;;;;;5053388;28;20037;-56
2023/01/02 04:32:47;;;;;;;29.02;18.95;;;10.50;99.90;;;;;;5054510;28;20049;-56
2023/01/02 04:35:16;;;;;;;30.70;18.58;;;11.10;99.90;;;;;;5054777;28;20044;-56
2023/01/02 04:37:43;;;;;;;31.40;17.95;;;10.40;99.90;;;;;;5055355;28;20166;-55
2023/01/02 04:40:12;;;;;;;29.33;17.45;;;10.80;99.90;;;;;;5054571;28;20085;-57
2023/01/02 04:42:38;;;;;;;30.63;16.95;;;10.70;99.90;;;;;;5053906;28;20036;-56
2023/01/02 04:45:04;;;;;;;34.53;18.90;;;10.70;99.90;;;;;;5054417;28;20443;-56
2023/01/02 04:47:29;;;;;;;28.20;17.35;;;10.70;99.90;;;;;;5053304;28;20052;-56
2023/01/02 04:49:55;;;;;;;26.90;18.48;;;10.60;99.90;;;;;;5052114;28;20083;-56
2023/01/02 04:52:21;;;;;;;27.15;17.30;;;10.70;99.90;;;;;;5053764;28;20098;-53
2023/01/02 04:54:47;;;;;;;31.33;18.08;;;10.60;99.90;;;;;;5054402;28;20072;-54
2023/01/02 04:57:12;;;;;;;28.83;17.05;;;10.70;99.90;;;;;;5054490;28;20036;-56
2023/01/02 04:59:38;;;;;;;26.13;17.23;;;10.60;99.90;;;;;;5053219;28;20040;-56
2023/01/02 05:02:04;;;;;;;23.27;15.57;;;10.60;99.90;;;;;;5053995;28;20044;-56
2023/01/02 05:04:29;;;;;;;31.05;16.77;;;10.50;99.90;;;;;;5053343;28;20039;-56
2023/01/02 05:06:56;;;;;;;25.73;16.98;;;10.40;99.90;;;;;;5052903;28;20036;-55
2023/01/02 05:09:21;;;;;;;22.25;14.80;;;10.40;99.90;;;;;;5052855;28;20476;-55
2023/01/02 05:11:47;;;;;;;21.27;13.07;;;10.70;99.90;;;;;;5053451;28;20051;-55
2023/01/02 05:14:13;;;;;;;21.23;13.82;;;10.50;99.90;;;;;;5052977;28;20466;-55
2023/01/02 05:16:38;;;;;;;20.75;13.07;;;10.60;99.90;;;;;;5052146;28;20060;-55
2023/01/02 05:19:04;;;;;;;17.48;12.50;;;11.30;99.90;;;;;;5054468;28;20086;-55
2023/01/02 05:24:15;;;;;;;16.83;11.48;;;10.60;99.90;;;;;;5052859;28;20049;-55
2023/01/02 05:26:40;;;;;;;17.92;11.40;;;10.70;99.90;;;;;;5051101;28;20036;-54
2023/01/02 05:29:06;;;;;;;13.27;8.93;;;10.50;99.90;;;;;;5053098;28;20044;-55
2023/01/02 05:31:32;;;;;;;14.38;9.80;;;10.70;99.90;;;;;;5052132;28;20396;-54
2023/01/02 05:33:58;;;;;;;15.55;9.10;;;10.40;99.90;;;;;;5052601;28;20044;-55
2023/01/02 05:36:26;;;;;;;13.23;8.45;;;10.60;99.90;;;;;;5052511;28;20040;-54
2023/01/02 05:38:52;;;;;;;10.98;7.70;;;10.70;99.90;;;;;;5052898;28;20127;-56
2023/01/02 05:41:19;;;;;;;11.05;7.78;;;10.60;99.90;;;;;;5052504;28;20056;-54
2023/01/02 05:43:45;;;;;;;10.48;7.50;;;10.50;99.90;;;;;;5052697;28;20052;-56
2023/01/02 05:46:16;;;;;;;11.45;7.20;;;10.40;99.90;;;;;;5052703;28;20048;-56
2023/01/02 05:48:42;;;;;;;12.07;7.85;;;10.50;99.90;;;;;;5052356;28;20122;-56
2023/01/02 05:51:10;;;;;;;10.80;8.20;;;10.50;99.90;;;;;;5052578;28;20131;-56
2023/01/02 05:53:36;;;;;;;15.93;8.27;;;10.40;99.90;;;;;;5051683;28;20051;-56
2023/01/02 05:56:10;;;;;;;11.88;8.15;;;11.20;99.90;;;;;;5053374;28;20354;-56
2023/01/02 05:58:37;;;;;;;13.15;9.05;;;10.50;99.90;;;;;;5053777;28;20049;-56
2023/01/02 06:01:08;;;;;;;13.43;8.70;;;10.40;99.90;;;;;;5053115;28;20040;-56
2023/01/02 06:03:35;;;;;;;16.00;9.95;;;10.50;99.90;;;;;;5053638;28;20133;-57
2023/01/02 06:06:08;;;;;;;15.80;9.95;;;10.60;99.90;;;;;;5053630;28;20393;-56
2023/01/02 06:08:34;;;;;;;10.60;8.10;;;10.70;99.90;;;;;;5051895;28;20041;-56
2023/01/02 06:11:01;;;;;;;13.18;9.88;;;10.50;99.90;;;;;;5053170;28;20041;-56
2023/01/02 06:13:31;;;;;;;12.38;8.80;;;10.50;99.90;;;;;;5052586;28;20064;-56
2023/01/02 06:15:58;;;;;;;15.77;9.13;;;10.40;99.90;;;;;;5052146;28;20060;-56
2023/01/02 06:18:25;;;;;;;15.55;10.40;;;10.40;99.90;;;;;;5053715;28;20110;-56
2023/01/02 06:20:51;;;;;;;17.60;10.80;;;10.60;99.90;;;;;;5053485;28;20047;-55
2023/01/02 06:23:17;;;;;;;15.60;10.88;;;10.30;99.90;;;;;;5052276;28;20082;-55
2023/01/02 06:25:42;;;;;;;16.70;11.25;;;10.60;99.90;;;;;;5051752;28;20044;-55
2023/01/02 06:28:08;;;;;;;21.23;12.95;;;10.50;99.90;;;;;;5053584;28;20429;-55
2023/01/02 06:30:34;;;;;;;14.00;10.27;;;10.60;99.90;;;;;;5051025;28;20068;-55
2023/01/02 06:32:59;;;;;;;14.77;10.93;;;10.40;99.90;;;;;;5051620;28;20041;-55
2023/01/02 06:35:25;;;;;;;13.93;10.13;;;10.40;99.90;;;;;;5050945;28;20424;-55
2023/01/02 06:37:51;;;;;;;12.00;8.50;;;10.40;99.90;;;;;;5054715;28;20417;-55
2023/01/02 06:40:17;;;;;;;13.05;9.18;;;10.50;99.90;;;;;;5055371;28;20044;-56
2023/01/02 06:42:43;;;;;;;10.63;8.32;;;10.30;99.90;;;;;;5054877;28;20044;-56
2023/01/02 06:45:10;;;;;;;12.50;9.13;;;10.30;99.90;;;;;;5054730;28;20047;-56
2023/01/02 06:47:35;;;;;;;12.38;9.65;;;10.20;99.90;;;;;;5055259;28;20417;-55
2023/01/02 06:50:01;;;;;;;13.60;9.98;;;10.10;99.90;;;;;;5055890;28;20771;-55
2023/01/02 06:52:27;;;;;;;13.40;9.68;;;11.00;99.90;;;;;;5055258;28;20142;-56
2023/01/02 06:54:53;;;;;;;11.88;8.35;;;10.00;99.90;;;;;;5055173;28;20037;-56
2023/01/02 06:57:19;;;;;;;11.65;8.15;;;10.00;99.90;;;;;;5056220;28;20044;-56
2023/01/02 06:59:45;;;;;;;14.27;8.15;;;10.10;99.90;;;;;;5056019;28;20055;-56
2023/01/02 07:02:12;;;;;;;12.50;7.53;;;9.90;99.90;;;;;;5055410;28;20452;-56
2023/01/02 07:04:37;;;;;;;12.60;7.30;;;10.00;99.90;;;;;;5054811;28;20036;-56
2023/01/02 07:07:03;;;;;;;14.38;7.13;;;9.50;99.90;;;;;;5053820;28;20570;-56
2023/01/02 07:09:30;;;;;;;10.50;5.55;;;9.30;99.90;;;;;;5056063;28;20111;-55
2023/01/02 07:11:57;;;;;;;8.65;4.60;;;9.30;99.90;;;;;;5055613;28;20048;-56
2023/01/02 07:14:23;;;;;;;8.60;4.45;;;9.30;99.90;;;;;;5054116;28;20052;-55
2023/01/02 07:16:49;;;;;;;9.18;3.90;;;9.10;99.90;;;;;;5054323;28;20051;-56
2023/01/02 07:19:15;;;;;;;8.40;3.40;;;9.00;99.90;;;;;;5052592;28;20040;-56
2023/01/02 07:21:41;;;;;;;6.43;1.63;;;9.10;99.90;;;;;;5052887;28;20051;-56
2023/01/02 07:24:11;;;;;;;7.45;1.80;;;8.80;99.90;;;;;;5053703;28;20285;-56
2023/01/02 07:26:37;;;;;;;4.22;1.70;;;8.90;99.90;;;;;;5055471;28;20044;-56
2023/01/02 07:29:02;;;;;;;2.97;1.23;;;8.90;99.90;;;;;;5056411;28;20477;-56
2023/01/02 07:31:28;;;;;;;3.65;0.90;;;8.50;99.90;;;;;;5055245;28;20044;-56
2023/01/02 07:33:54;;;;;;;4.30;1.45;;;8.50;99.90;;;;;;5054968;28;20052;-56
2023/01/02 07:36:23;;;;;;;3.38;0.85;;;8.60;99.90;;;;;;5055831;28;20052;-56
2023/01/02 07:38:53;;;;;;;4.45;1.48;;;8.40;99.90;;;;;;5056203;28;20037;-56
2023/01/02 07:41:22;;;;;;;3.08;1.08;;;8.20;99.90;;;;;;5055239;28;20497;-56
2023/01/02 07:43:48;;;;;;;5.00;1.00;;;8.20;99.90;;;;;;5055346;28;20041;-55
2023/01/02 07:46:16;;;;;;;3.20;1.08;;;8.30;99.90;;;;;;5054942;28;20044;-56
2023/01/02 07:48:42;;;;;;;4.60;1.40;;;8.90;99.90;;;;;;5054406;28;20044;-56
2023/01/02 07:51:08;;;;;;;3.42;1.00;;;8.40;99.90;;;;;;5055362;28;20125;-55
2023/01/02 07:53:34;;;;;;;4.10;1.20;;;8.10;99.90;;;;;;5054578;28;20102;-56
2023/01/02 07:56:01;;;;;;;3.20;1.13;;;8.20;99.90;;;;;;5053736;28;20057;-56
2023/01/02 07:58:27;;;;;;;5.65;1.58;;;9.60;99.90;;;;;;5054966;28;20038;-56
2023/01/02 08:00:53;;;;;;;4.60;1.67;;;8.10;99.90;;;;;;5052728;28;20592;-56
2023/01/02 08:03:20;;;;;;;5.07;1.45;;;9.00;99.90;;;;;;5052938;28;20101;-56
2023/01/02 08:05:46;;;;;;;3.35;1.20;;;8.10;99.90;;;;;;5053519;28;20405;-56
2023/01/02 08:08:11;;;;;;;6.68;1.70;;;8.10;99.90;;;;;;5054010;28;20040;-56
2023/01/02 08:10:37;;;;;;;5.25;1.65;;;7.90;99.90;;;;;;5052033;28;20040;-56
2023/01/02 08:13:04;;;;;;;5.25;2.15;;;8.00;99.90;;;;;;5054396;28;20123;-56
2023/01/02 08:15:30;;;;;;;5.32;2.13;;;7.90;99.90;;;;;;5052716;28;20534;-56
2023/01/02 08:17:57;;;;;;;8.38;2.20;;;8.10;99.90;;;;;;5053569;28;20127;-55
2023/01/02 08:20:24;;;;;;;5.20;1.88;;;8.20;99.90;;;;;;5053677;28;20101;-54
2023/01/02 08:22:49;;;;;;;6.03;2.10;;;7.70;99.90;;;;;;5053715;28;20117;-54
2023/01/02 08:25:16;;;;;;;4.40;1.77;;;8.00;99.90;;;;;;5053241;28;20090;-53
2023/01/02 08:27:41;;;;;;;7.00;2.13;;;8.00;99.90;;;;;;5053555;28;20135;-54
2023/01/02 08:30:08;;;;;;;3.42;1.58;;;8.30;99.90;;;;;;5053672;28;20093;-54
2023/01/02 08:32:37;;;;;;;5.13;1.70;;;8.00;99.90;;;;;;5051924;28;20044;-54
2023/01/02 08:35:05;;;;;;;4.72;1.50;;;7.80;99.90;;;;;;5052494;28;20447;-53
2023/01/02 08:37:31;;;;;;;9.73;1.63;;;8.00;99.90;;;;;;5051717;28;20098;-52
2023/01/02 08:39:57;;;;;;;7.10;1.80;;;8.00;99.90;;;;;;5052844;28;20033;-52
2023/01/02 08:42:23;;;;;;;6.05;1.33;;;7.80;99.90;;;;;;5053444;28;20042;-52
2023/01/02 08:44:48;;;;;;;11.55;1.95;;;9.20;99.90;;;;;;5052003;28;20040;-55
2023/01/02 08:47:14;;;;;;;41.83;4.05;;;7.90;99.90;;;;;;5053220;28;20047;-55
2023/01/02 08:49:40;;;;;;;17.73;2.17;;;8.00;99.90;;;;;;5053711;28;20720;-54
2023/01/02 08:52:06;;;;;;;4.47;1.60;;;7.90;99.90;;;;;;5054947;28;20036;-55
2023/01/02 08:54:33;;;;;;;7.10;1.95;;;8.00;99.90;;;;;;5053577;28;20126;-52
2023/01/02 08:56:58;;;;;;;15.70;2.30;;;8.00;99.90;;;;;;5053334;28;20050;-54
2023/01/02 08:59:25;;;;;;;8.25;1.75;;;8.70;99.90;;;;;;5053623;28;20044;-54
2023/01/02 09:01:52;;;;;;;6.82;2.15;;;7.90;99.90;;;;;;5053710;28;20624;-54
2023/01/02 09:04:18;;;;;;;7.53;2.58;;;7.80;99.90;;;;;;5054693;28;20054;-54
2023/01/02 09:06:44;;;;;;;8.55;2.45;;;7.90;99.90;;;;;;5052967;28;20336;-52
2023/01/02 09:09:12;;;;;;;6.20;2.85;;;8.90;99.90;;;;;;5053351;28;20068;-52
2023/01/02 09:11:42;;;;;;;6.03;3.25;;;8.00;99.90;;;;;;5053924;28;20049;-51
2023/01/02 09:14:08;;;;;;;8.93;2.88;;;9.50;99.90;;;;;;5052011;28;20068;-50
2023/01/02 09:16:34;;;;;;;9.18;3.00;;;7.80;99.90;;;;;;5052216;28;20676;-49
2023/01/02 09:19:01;;;;;;;8.77;2.92;;;8.00;99.90;;;;;;5051761;28;20044;-50
2023/01/02 09:21:27;;;;;;;6.68;3.13;;;8.00;99.90;;;;;;5051953;28;20036;-52
2023/01/02 09:23:52;;;;;;;7.43;2.65;;;8.80;99.90;;;;;;5050661;28;20055;-50
2023/01/02 09:26:18;;;;;;;8.95;3.28;;;8.00;99.90;;;;;;5052541;28;20044;-48
2023/01/02 09:28:44;;;;;;;6.72;2.83;;;8.00;99.90;;;;;;5051404;28;20059;-49
2023/01/02 09:31:14;;;;;;;7.97;3.17;;;9.00;99.90;;;;;;5051589;28;20040;-51
2023/01/02 09:33:41;;;;;;;6.60;3.00;;;7.90;99.90;;;;;;5051450;28;20284;-51
2023/01/02 09:36:09;;;;;;;8.48;3.03;;;7.90;99.90;;;;;;5052031;28;20633;-47
2023/01/02 09:38:34;;;;;;;9.18;4.20;;;7.90;99.90;;;;;;5051414;28;20037;-47
2023/01/02 09:41:09;;;;;;;10.25;3.95;;;8.10;99.90;;;;;;5051748;28;20067;-48
2023/01/02 09:43:49;;;;;;;14.65;4.00;;;8.10;99.90;;;;;;5050688;28;20063;-53
2023/01/02 09:46:31;;;;;;;13.85;4.30;;;8.10;99.90;;;;;;5049714;28;20555;-49
2023/01/02 09:48:59;;;;;;;9.63;4.03;;;8.10;99.90;;;;;;5051777;28;20048;-49
2023/01/02 09:51:25;;;;;;;8.07;3.70;;;8.10;99.90;;;;;;5051630;28;20278;-53
2023/01/02 09:53:51;;;;;;;12.25;3.92;;;8.00;99.90;;;;;;5052165;28;20049;-51
2023/01/02 09:56:26;;;;;;;9.73;4.07;;;8.10;99.90;;;;;;5050816;28;20067;-49
2023/01/02 09:59:11;;;;;;;9.57;3.42;;;8.20;99.90;;;;;;5054732;28;20410;-48
2023/01/02 10:02:04;;;;;;;8.82;3.72;;;7.90;99.90;;;;;;5052209;28;20041;-50
2023/01/02 10:04:39;;;;;;;10.48;3.35;;;8.20;99.90;;;;;;5053534;28;20045;-52
2023/01/02 10:07:31;;;;;;;9.25;3.38;;;9.40;99.90;;;;;;5053625;28;20053;-52
2023/01/02 10:10:03;;;;;;;;;;;8.10;99.90;;;;;;5053668;28;20079;-52
2023/01/02 10:12:37;;;;;;;9.27;3.10;;;7.90;99.90;;;;;;5054710;28;19978;-51
2023/01/02 10:15:12;;;;;;;8.18;2.47;;;8.10;99.90;;;;;;5056449;28;20516;-51
2023/01/02 10:17:45;;;;;;;5.97;2.65;;;7.90;99.90;;;;;;5057433;28;20053;-52
2023/01/02 10:20:13;;;;;;;5.45;2.28;;;8.00;99.90;;;;;;5057800;28;20617;-51
2023/01/02 10:22:49;;;;;;;6.22;2.22;;;8.10;99.90;;;;;;5056279;28;20052;-50
2023/01/02 10:25:36;;;;;;;7.80;2.58;;;9.30;99.90;;;;;;5057818;28;20036;-50
2023/01/02 10:28:36;;;;;;;6.00;2.22;;;7.90;99.90;;;;;;5058198;28;20063;-51
2023/01/02 10:31:10;;;;;;;7.10;3.17;;;8.10;99.90;;;;;;5055276;28;20049;-52
2023/01/02 10:33:57;;;;;;;7.43;3.50;;;8.00;99.90;;;;;;5055005;28;20103;-51
2023/01/02 10:36:28;;;;;;;11.13;3.22;;;8.10;99.90;;;;;;5055260;28;20071;-51
2023/01/02 10:39:00;;;;;;;7.88;2.67;;;8.10;99.90;;;;;;5055029;28;20033;-51
2023/01/02 10:41:28;;;;;;;7.75;2.50;;;9.60;99.90;;;;;;5054686;28;20051;-49
2023/01/02 10:43:59;;;;;;;6.18;2.55;;;8.00;99.90;;;;;;5055801;28;20032;-51
2023/01/02 10:46:34;;;;;;;7.20;2.28;;;9.20;99.90;;;;;;5053839;28;20036;-52
2023/01/02 10:49:05;;;;;;;6.30;2.20;;;8.10;99.90;;;;;;5055585;28;20495;-51
2023/01/02 10:51:31;;;;;;;7.00;2.70;;;8.10;99.90;;;;;;5055257;28;20048;-50
2023/01/02 10:54:02;;;;;;;7.40;2.67;;;9.70;99.90;;;;;;5055403;28;20051;-52
2023/01/02 10:56:31;;;;;;;8.90;2.20;;;8.20;99.90;;;;;;5055217;28;20508;-51
2023/01/02 10:58:58;;;;;;;10.60;2.78;;;7.00;99.90;;;;;;5055527;28;20420;-48
2023/01/02 11:01:24;;;;;;;6.30;2.55;;;8.30;99.90;;;;;;5054417;28;20041;-52
2023/01/02 11:03:58;;;;;;;12.80;2.50;;;8.60;99.90;;;;;;5054772;28;20505;-51
2023/01/02 11:06:26;;;;;;;8.75;2.30;;;8.70;99.90;;;;;;5054119;28;20074;-52
2023/01/02 11:08:59;;;;;;;9.95;2.40;;;8.20;99.90;;;;;;5054812;28;20045;-50
2023/01/02 11:11:26;;;;;;;10.07;2.65;;;8.50;99.90;;;;;;5054370;28;20048;-51
2023/01/02 11:13:56;;;;;;;8.15;2.83;;;9.40;99.90;;;;;;5053933;28;20048;-51
2023/01/02 11:16:25;;;;;;;14.23;2.85;;;8.60;99.90;;;;;;5053342;28;20053;-52
2023/01/02 11:18:56;;;;;;;6.90;2.50;;;8.40;99.90;;;;;;5054263;28;20733;-53
2023/01/02 11:21:40;;;;;;;9.98;2.47;;;8.40;99.90;;;;;;5054979;28;20620;-52
2023/01/02 11:24:14;;;;;;;13.00;2.97;;;8.50;99.90;;;;;;5054752;28;20055;-49
2023/01/02 11:26:41;;;;;;;6.60;2.00;;;8.30;99.90;;;;;;5054967;28;20130;-51
2023/01/02 11:29:22;;;;;;;7.93;2.38;;;8.60;99.90;;;;;;5057471;28;20469;-52
2023/01/02 11:31:51;;;;;;;6.97;2.08;;;9.80;99.90;;;;;;5054883;28;20530;-52
2023/01/02 11:34:23;;;;;;;7.25;2.13;;;8.60;99.90;;;;;;5056072;28;20075;-52
2023/01/02 11:37:10;;;;;;;8.40;2.03;;;8.80;99.90;;;;;;5054634;28;20032;-51
2023/01/02 11:39:35;;;;;;;9.38;2.20;;;8.70;99.90;;;;;;5055193;28;20048;-49
2023/01/02 11:45:16;;;;;;;7.68;1.60;;;8.60;99.90;;;;;;5054859;28;20268;-52
2023/01/02 11:47:47;;;;;;;9.20;2.03;;;8.80;99.90;;;;;;5054414;28;20044;-53
2023/01/02 11:50:23;;;;;;;8.05;1.58;;;8.80;99.90;;;;;;5053794;28;20083;-51
2023/01/02 11:53:10;;;;;;;10.73;1.90;;;8.90;99.90;;;;;;5054774;28;20173;-49
2023/01/02 11:55:57;;;;;;;8.25;1.80;;;8.80;99.90;;;;;;5054032;28;20047;-49
2023/01/02 11:58:45;;;;;;;8.90;1.75;;;8.80;99.90;;;;;;5055275;28;20032;-51
2023/01/02 12:01:20;;;;;;;8.73;1.48;;;8.80;99.90;;;;;;5053750;28;20119;-49
2023/01/02 12:03:45;;;;;;;12.75;1.55;;;8.60;99.90;;;;;;5053997;28;20072;-50
2023/01/02 12:06:16;;;;;;;8.68;1.42;;;8.70;99.90;;;;;;5053133;28;20044;-51
2023/01/02 12:08:56;;;;;;;11.88;1.88;;;8.70;99.90;;;;;;5053473;28;20109;-55
2023/01/02 12:11:52;;;;;;;11.63;1.75;;;8.60;99.90;;;;;;5053107;28;20044;-50
2023/01/02 12:14:37;;;;;;;8.60;1.60;;;8.60;99.90;;;;;;5053828;28;20575;-52
2023/01/02 12:17:19;;;;;;;11.23;1.88;;;8.50;99.90;;;;;;5052070;28;20040;-50
2023/01/02 12:20:01;;;;;;;11.70;1.73;;;8.50;99.90;;;;;;5052099;28;20292;-50
2023/01/02 12:22:39;;;;;;;9.93;1.60;;;8.60;99.90;;;;;;5053469;28;20169;-51
2023/01/02 12:25:34;;;;;;;10.02;1.83;;;8.60;99.90;;;;;;5052658;28;20049;-50
2023/01/02 12:28:02;;;;;;;10.02;1.58;;;8.70;99.90;;;;;;5053530;28;20044;-48
2023/01/02 12:30:32;;;;;;;10.90;1.60;;;8.90;99.90;;;;;;5052779;28;20308;-48
2023/01/02 12:33:28;;;;;;;10.10;1.40;;;8.80;99.90;;;;;;5052742;28;20059;-51
2023/01/02 12:35:57;;;;;;;14.60;2.10;;;8.90;99.90;;;;;;5051644;28;20135;-49
2023/01/02 12:38:58;;;;;;;8.95;1.67;;;8.70;99.90;;;;;;5052562;28;20386;-51
2023/01/02 12:41:51;;;;;;;16.08;2.08;;;9.00;99.90;;;;;;5052593;28;20135;-51
2023/01/02 12:44:17;;;;;;;16.75;2.00;;;8.70;99.90;;;;;;5052383;28;20583;-49
2023/01/02 12:46:43;;;;;;;10.63;2.15;;;8.80;99.90;;;;;;5052096;28;20076;-50
2023/01/02 12:50:02;;;;;;;12.85;2.25;;;8.80;99.90;;;;;;5052305;28;20036;-49
2023/01/02 12:52:57;;;;;;;9.48;2.35;;;10.50;99.90;;;;;;5050652;28;20489;-48
2023/01/02 12:56:01;;;;;;;12.63;2.08;;;8.80;99.90;;;;;;5053042;28;20072;-48
2023/01/02 12:58:48;;;;;;;15.05;3.03;;;9.40;99.90;;;;;;5053310;28;20056;-50
2023/01/02 13:01:38;;;;;;;10.60;1.88;;;8.60;99.90;;;;;;5052931;28;20063;-49
2023/01/02 13:04:41;;;;;;;13.15;2.17;;;8.60;99.90;;;;;;5053446;28;20044;-51
2023/01/02 13:07:28;;;;;;;11.85;2.05;;;8.60;99.90;;;;;;5024578;28;20110;-48
2023/01/02 13:09:56;;;;;;;19.40;3.00;;;8.70;99.90;;;;;;5054284;28;20408;-48
2023/01/02 13:12:25;;;;;;;15.60;2.55;;;8.80;99.90;;;;;;5054114;28;20393;-51